Главная страница
METAR-TAF:

METAR-TAF

Аэропорты :

Вашингтон, Пенсильвания, США

широта: 40-08N, долгота: 080-17W, высота над уровнем моря: 361 м

Текущие метеонаблюдения

Эта сводка был подготовлена 10 минут назад, в 17:35 UTC
Ветер 7 Узел от южный
Температура 1°C
Влажность 100%
Давление 1014 hPa
Видимость: 8.0 км
Отдельные облака на высоте 700 фута
Сплошная облачность на высоте 3000 фута
дымка

METAR: KAFJ 181735Z AUTO 18007KT 5SM BR SCT007 OVC030 01/01 A2994 RMK AO2 P0012 PWINO FZRANO $

Время: 12:45 (17:45 UTC)


TAF: отсутствует

Метеонаблюдения и прогнозы для более 4000 аэропортов (сводки METAR и TAF).

Имеющиеся станции представлены на карте желтыми и красными точками.

Чтобы увидеть название станции, наведите на нее мышь.

Затем щелкните, чтобы увидеть метеонаблюдения и метеопрогнозы.

Управление картой: чтобы увеличить масштаб, щелкните зеленые кнопки с черным крестиком; чтобы уменьшить масштаб, щелкните зеленую кнопку с тире; для просмотра соседних карт щелкайте зеленые стрелки.


METAR-TAF: